메인 페이지
METAR-TAF:

METAR-TAF

공항 :

퍼스 공항

퍼스, 오스트레일리아

위도: 31-56S, 경도: 115-57E, 고도: 20m

현재 날씨관측

예보는 42분 전, 04:30시(UTC)에 발표되었습니다.
13kt
온도 20°C
습도 40%
기압 1023 hPa
시정 10km 이상
1500m 미만 상공 구름 및 적란운 없음

METAR: YPPH 250430Z 08013KT CAVOK 20/06 Q1023

시각: 13:12 (05:12 UTC)

예보

예보는 3 시간 3분 전, 02:09시(UTC)에 발표되었습니다.
예보 대상 시간: 25일 03시부터 26일 06시까지 (UTC)
14kt
시정 10km 이상
1500m 미만 상공 구름 및 적란운 없음
26일 0200시부터 (UTC)
북북동12kt
시정 10km 이상
1500m 미만 상공 구름 및 적란운 없음

TAF: YPPH 250209Z 2503/2606 08014KT CAVOK FM260200 03012KT CAVOK

4,000개 이상의 공항 관측 자료 및 예보 (METAR 및 TAF 보고).

지도상에서 검색 가능한 기상관측소가 노란 점과 빨간 점으로 표시되어 있습니다.

기상관측소 명을 보려면 표시 위로 마우스를 이동하세요.

날씨 관측과 예보를 보려면 클릭하세요.

지도 변경 : 확대하려면 엑스 표시가 있는 녹색 버튼, 축소하려면 빼기 표시가 있는 녹색 버튼, 다음 페이지의 지도를 보려면 녹색 화살표를 클릭하세요.


METAR-TAF: